Jawor — C6YH8 — position and weather

sailwx.info

Track history (hours):
 
Tides and Currents Weather Stations Pressure Air Temp Water Temp Dewpoint Dewpoint Depression Visibility Wind Speed Wind Dir Waves Ship Positions

Jawor

Last reported at 2017-Jan-07 18:25 UTC. Time now 2017-Jan-17 09:01 UTC.
Position N 51°36' E 002°23'.
Warning: this ship's position is 9 days out of date.

Length 229 m; draft 12.9 m.

Type: Cargo ship. MMSI: 311034100.

Date/timePositionNaut miles runAvg speedWind from/ knotsBaromVisibWave heightAir tempDewpointWater temp
2017-Jan-07 18:25N 51°36' E 002°23'1011.9
2017-Jan-07 17:33N 51°28' E 002°13'10 9.9
2017-Jan-07 16:33N 51°19' E 002°07'10 9.6
2017-Jan-07 15:33N 51°12' E 001°57'1010.0
2017-Jan-07 14:34N 51°07' E 001°44'10 9.5
2017-Jan-07 13:33N 51°00' E 001°33'10 9.7
2017-Jan-07 12:33N 50°51' E 001°25'6110.0
2017-Jan-07 06:30N 50°19' E 000°05'1111.5
2017-Jan-07 05:33N 50°16' W 000°12'2512.5
2017-Jan-07 03:32N 50°10' W 000°50'1313.8
2017-Jan-07 02:33N 50°06' W 001°10'1414.3
2017-Jan-07 01:33N 50°03' W 001°32'1414.2
2017-Jan-07 00:33N 49°60' W 001°53'1313.2
2017-Jan-06 23:33N 49°56' W 002°13'4611.4
2017-Jan-06 19:34N 49°43' W 003°21'  
2017-Jan-01 12:22N 40°00' W 028°07'810.1
2017-Jan-01 11:33N 40°00' W 028°18'1110.1
2017-Jan-01 10:29N 39°60' W 028°32'1110.2
2017-Jan-01 09:27N 39°60' W 028°46'910.4
2017-Jan-01 08:33N 39°60' W 028°58'1110.5
2017-Jan-01 07:32N 39°60' W 029°12'1110.6
2017-Jan-01 06:32N 39°59' W 029°26'1110.7
2017-Jan-01 05:33N 39°60' W 029°40'  
Track history (hours):
 
Tides and Currents Weather Stations Pressure Air Temp Water Temp Dewpoint Dewpoint Depression Visibility Wind Speed Wind Dir Waves Ship Positions

Jawor

Last reported at 2017-Jan-07 18:25 UTC. Time now 2017-Jan-17 09:01 UTC.
Position N 51°36' E 002°23'.
Warning: this ship's position is 9 days out of date.

Length 229 m; draft 12.9 m.

Type: Cargo ship. MMSI: 311034100.

Date/timePositionNaut miles runAvg speedWind from/ knotsBaromVisibWave heightAir tempDewpointWater temp
2017-Jan-07 18:25N 51°36' E 002°23'1011.9
2017-Jan-07 17:33N 51°28' E 002°13'10 9.9
2017-Jan-07 16:33N 51°19' E 002°07'10 9.6
2017-Jan-07 15:33N 51°12' E 001°57'1010.0
2017-Jan-07 14:34N 51°07' E 001°44'10 9.5
2017-Jan-07 13:33N 51°00' E 001°33'10 9.7
2017-Jan-07 12:33N 50°51' E 001°25'6110.0
2017-Jan-07 06:30N 50°19' E 000°05'1111.5
2017-Jan-07 05:33N 50°16' W 000°12'2512.5
2017-Jan-07 03:32N 50°10' W 000°50'1313.8
2017-Jan-07 02:33N 50°06' W 001°10'1414.3
2017-Jan-07 01:33N 50°03' W 001°32'1414.2
2017-Jan-07 00:33N 49°60' W 001°53'1313.2
2017-Jan-06 23:33N 49°56' W 002°13'4611.4
2017-Jan-06 19:34N 49°43' W 003°21'  
2017-Jan-01 12:22N 40°00' W 028°07'810.1
2017-Jan-01 11:33N 40°00' W 028°18'1110.1
2017-Jan-01 10:29N 39°60' W 028°32'1110.2
2017-Jan-01 09:27N 39°60' W 028°46'910.4
2017-Jan-01 08:33N 39°60' W 028°58'1110.5
2017-Jan-01 07:32N 39°60' W 029°12'1110.6
2017-Jan-01 06:32N 39°59' W 029°26'1110.7
2017-Jan-01 05:33N 39°60' W 029°40'  

Dump ship's entire track history